Time;durP1;ratioP1;P1;durP2;ratioP2;P2;SDS_P1;SDS_P2;PMS_P1;PMS_P2;Temp;Humidity;BMP_temperature;BMP_pressure;BME280_temperature;BME280_humidity;BME280_pressure;Samples;Min_cycle;Max_cycle;Signal;HPM_P1;HPM_P2
2024/02/17 00:00:22;;;;;;;10.10;6.70;;;;;;;9.90;52.29;99693.91;5035783;28;20036;-74
2024/02/17 00:02:47;;;;;;;10.18;6.45;;;;;;;9.85;52.24;99689.88;5035563;28;20029;-74
2024/02/17 00:05:13;;;;;;;11.45;6.47;;;;;;;9.87;52.22;99695.88;5053383;28;20064;-74
2024/02/17 00:07:38;;;;;;;10.25;6.53;;;;;;;9.89;52.21;99702.66;5035691;28;20029;-73
2024/02/17 00:10:05;;;;;;;12.32;6.78;;;;;;;9.89;52.15;99699.22;5035564;28;20024;-74
2024/02/17 00:12:30;;;;;;;9.07;6.43;;;;;;;9.83;52.43;99689.13;5052100;28;20094;-75
2024/02/17 00:14:56;;;;;;;10.35;6.68;;;;;;;9.83;52.15;99697.78;5018899;28;20029;-75
2024/02/17 00:17:21;;;;;;;10.35;6.82;;;;;;;9.84;52.34;99696.88;5018818;28;20078;-74
2024/02/17 00:19:47;;;;;;;12.65;6.60;;;;;;;9.85;52.13;99700.31;5051866;28;20029;-74
2024/02/17 00:22:16;;;;;;;12.98;6.32;;;;;;;9.83;52.08;99700.41;5018518;28;20048;-74
2024/02/17 00:24:41;;;;;;;10.07;6.05;;;;;;;9.82;52.09;99703.09;5035666;28;20040;-74
2024/02/17 00:27:07;;;;;;;11.52;6.70;;;;;;;9.83;52.11;99696.97;5035237;28;20424;-75
2024/02/17 00:29:33;;;;;;;9.98;6.38;;;;;;;9.81;52.08;99707.47;5034601;28;20570;-74
2024/02/17 00:31:59;;;;;;;10.20;6.60;;;;;;;9.78;52.03;99698.06;5052786;28;20055;-75
2024/02/17 00:34:24;;;;;;;11.35;6.57;;;;;;;9.74;52.05;99691.34;5051826;28;20116;-73
2024/02/17 00:36:50;;;;;;;9.48;6.20;;;;;;;9.73;52.24;99681.84;5051761;28;20052;-75
2024/02/17 00:39:15;;;;;;;11.80;6.18;;;;;;;9.70;52.23;99683.78;5052910;28;20025;-74
2024/02/17 00:41:42;;;;;;;10.25;6.28;;;;;;;9.69;52.34;99690.75;5035038;28;20029;-75
2024/02/17 00:44:08;;;;;;;9.82;6.43;;;;;;;9.72;51.84;99701.00;5035111;28;20052;-76
2024/02/17 00:46:34;;;;;;;9.05;5.93;;;;;;;9.66;51.93;99693.56;5034505;28;20464;-73
2024/02/17 00:48:59;;;;;;;11.05;6.53;;;;;;;9.64;52.10;99694.56;5018287;28;20041;-75
2024/02/17 00:51:25;;;;;;;9.68;6.05;;;;;;;9.63;52.18;99696.34;5034571;28;20036;-74
2024/02/17 00:53:50;;;;;;;10.88;6.30;;;;;;;9.66;52.22;99698.78;5034543;28;20056;-76
2024/02/17 00:56:16;;;;;;;9.63;5.97;;;;;;;9.61;52.04;99692.97;5052454;28;20028;-75
2024/02/17 00:58:42;;;;;;;9.55;6.05;;;;;;;9.62;52.03;99694.66;5018170;28;20029;-73
2024/02/17 01:01:09;;;;;;;10.85;6.43;;;;;;;9.61;51.92;99695.56;5034441;28;20021;-74
2024/02/17 01:03:35;;;;;;;10.32;6.28;;;;;;;9.59;52.02;99693.06;5018535;28;20496;-75
2024/02/17 01:06:02;;;;;;;9.68;5.68;;;;;;;9.57;52.16;99688.88;5050900;28;20025;-75
2024/02/17 01:08:28;;;;;;;10.35;6.20;;;;;;;9.50;51.89;99683.16;5035073;28;20127;-74
2024/02/17 01:10:54;;;;;;;7.95;5.93;;;;;;;9.55;52.06;99690.72;5034871;28;20503;-74
2024/02/17 01:13:19;;;;;;;10.27;6.47;;;;;;;9.53;52.04;99692.56;5052439;28;20119;-75
2024/02/17 01:15:45;;;;;;;8.95;5.68;;;;;;;9.47;51.99;99682.50;5017661;28;20108;-74
2024/02/17 01:18:10;;;;;;;8.55;5.88;;;;;;;9.46;51.81;99676.44;5050531;28;20029;-74
2024/02/17 01:20:39;;;;;;;11.93;6.53;;;;;;;9.44;52.12;99680.06;5017750;28;20028;-74
2024/02/17 01:23:04;;;;;;;13.02;5.70;;;;;;;9.41;52.18;99676.69;5050844;28;20090;-75
2024/02/17 01:25:30;;;;;;;9.52;5.80;;;;;;;9.44;52.00;99683.53;5050857;28;20408;-74
2024/02/17 01:27:55;;;;;;;9.57;6.10;;;;;;;9.40;51.95;99672.41;5050746;28;20044;-75
2024/02/17 01:30:21;;;;;;;9.88;5.60;;;;;;;9.43;52.09;99674.00;5050728;28;20025;-74
2024/02/17 01:32:46;;;;;;;9.20;5.72;;;;;;;9.35;52.22;99668.41;5050850;28;20052;-74
2024/02/17 01:35:13;;;;;;;9.70;5.80;;;;;;;9.37;51.92;99671.75;5026240;28;20511;-73
2024/02/17 01:37:39;;;;;;;10.63;6.20;;;;;;;9.34;52.01;99669.31;5032134;28;20026;-75
2024/02/17 01:40:07;;;;;;;11.50;6.57;;;;;;;9.35;52.15;99674.44;5014184;28;20048;-75
2024/02/17 01:42:33;;;;;;;9.80;6.05;;;;;;;9.33;52.08;99668.50;5030364;28;20100;-72
2024/02/17 01:44:59;;;;;;;8.38;5.75;;;;;;;9.32;52.06;99668.56;5046783;28;20520;-74
2024/02/17 01:47:25;;;;;;;9.15;5.72;;;;;;;9.31;52.32;99672.09;5046843;28;20057;-74
2024/02/17 01:49:51;;;;;;;8.88;5.55;;;;;;;9.28;52.20;99672.25;5030347;28;20080;-72
2024/02/17 01:52:17;;;;;;;11.43;6.18;;;;;;;9.28;52.13;99664.44;5030851;28;20048;-73
2024/02/17 01:54:43;;;;;;;9.77;6.20;;;;;;;9.26;52.18;99676.72;5014426;28;20438;-74
2024/02/17 01:57:08;;;;;;;9.38;5.65;;;;;;;9.24;52.12;99671.59;5030519;28;20021;-74
2024/02/17 01:59:34;;;;;;;9.13;5.53;;;;;;;9.21;52.05;99659.56;5030498;28;20033;-74
2024/02/17 02:01:59;;;;;;;9.40;5.97;;;;;;;9.21;52.39;99667.38;4997895;28;20038;-73
2024/02/17 02:04:25;;;;;;;11.25;5.72;;;;;;;9.18;52.10;99662.34;5030848;28;20393;-73
2024/02/17 02:06:50;;;;;;;10.23;6.15;;;;;;;9.18;51.84;99661.53;5014440;28;20079;-74
2024/02/17 02:09:23;;;;;;;13.27;6.03;;;;;;;9.16;52.30;99660.78;5030289;28;20046;-73
2024/02/17 02:11:51;;;;;;;9.68;5.43;;;;;;;9.13;52.19;99659.16;5046152;28;20029;-74
2024/02/17 02:14:18;;;;;;;10.68;5.60;;;;;;;9.09;52.20;99651.59;5030738;28;20528;-73
2024/02/17 02:16:44;;;;;;;7.53;5.18;;;;;;;9.10;52.22;99656.72;5030344;28;20448;-74
2024/02/17 02:19:14;;;;;;;8.65;5.70;;;;;;;9.06;52.14;99652.59;5030438;28;20025;-72
2024/02/17 02:21:39;;;;;;;10.55;5.82;;;;;;;9.08;52.03;99658.59;5030856;28;20400;-74
2024/02/17 02:24:05;;;;;;;9.40;5.80;;;;;;;9.07;51.95;99662.09;5029676;28;20069;-72
2024/02/17 02:26:31;;;;;;;9.07;5.47;;;;;;;8.99;52.15;99649.50;5030173;28;20416;-75
2024/02/17 02:28:57;;;;;;;10.07;5.97;;;;;;;8.99;52.26;99656.50;5031314;28;20372;-74
2024/02/17 02:31:23;;;;;;;10.23;5.78;;;;;;;8.99;52.33;99662.53;5030502;28;20108;-74
2024/02/17 02:33:48;;;;;;;10.38;5.70;;;;;;;8.99;52.10;99659.94;5030012;28;20164;-74
2024/02/17 02:36:14;;;;;;;10.18;5.78;;;;;;;8.98;52.11;99666.06;4997250;28;20034;-74
2024/02/17 02:38:39;;;;;;;8.82;5.68;;;;;;;8.94;52.32;99655.91;5013548;28;20029;-74
2024/02/17 02:41:05;;;;;;;10.02;5.32;;;;;;;8.95;52.03;99663.63;5013548;28;20444;-74
2024/02/17 02:43:30;;;;;;;9.52;5.47;;;;;;;8.93;52.25;99662.88;4996850;28;20120;-73
2024/02/17 02:45:56;;;;;;;9.85;5.78;;;;;;;8.93;52.04;99664.63;5014199;28;20026;-73
2024/02/17 02:48:22;;;;;;;10.40;5.40;;;;;;;8.83;52.05;99657.31;5028736;28;20562;-72
2024/02/17 02:50:48;;;;;;;10.32;5.60;;;;;;;8.88;52.25;99665.72;5013381;28;20390;-73
2024/02/17 02:53:13;;;;;;;7.88;5.28;;;;;;;8.82;52.30;99660.88;5007690;28;20052;-73
2024/02/17 02:55:39;;;;;;;11.68;6.65;;;;;;;8.85;52.44;99670.25;5041786;28;20424;-73
2024/02/17 02:58:04;;;;;;;9.45;5.63;;;;;;;8.84;51.85;99673.81;5041611;28;20040;-73
2024/02/17 03:00:30;;;;;;;9.85;5.75;;;;;;;8.82;52.10;99666.06;5043470;28;20124;-73
2024/02/17 03:02:56;;;;;;;8.88;5.63;;;;;;;8.81;52.02;99671.38;5023934;28;20041;-73
2024/02/17 03:05:22;;;;;;;9.02;5.85;;;;;;;8.81;52.25;99674.78;5043442;28;20060;-73
2024/02/17 03:07:48;;;;;;;7.78;5.25;;;;;;;8.75;52.25;99664.72;5025716;28;20060;-73
2024/02/17 03:10:13;;;;;;;9.48;5.20;;;;;;;8.73;52.07;99665.72;5042564;28;20029;-73
2024/02/17 03:12:39;;;;;;;9.15;5.32;;;;;;;8.77;52.30;99675.03;5040950;28;20075;-75
2024/02/17 03:15:05;;;;;;;10.57;5.65;;;;;;;8.75;52.27;99677.72;5016684;28;20041;-74
2024/02/17 03:17:31;;;;;;;8.35;5.43;;;;;;;8.74;52.38;99678.63;5016376;28;20045;-74
2024/02/17 03:19:56;;;;;;;8.43;5.80;;;;;;;8.69;52.02;99680.66;5034307;28;20124;-73
2024/02/17 03:22:22;;;;;;;9.27;4.90;;;;;;;8.69;52.29;99681.50;5019065;28;20106;-73
2024/02/17 03:24:47;;;;;;;8.85;5.50;;;;;;;8.68;52.44;99679.81;5033085;28;20116;-74
2024/02/17 03:27:13;;;;;;;8.80;5.35;;;;;;;8.68;52.09;99684.16;5016443;28;20095;-74
2024/02/17 03:29:38;;;;;;;9.30;5.57;;;;;;;8.66;52.41;99676.44;5022325;28;20030;-74
2024/02/17 03:32:05;;;;;;;8.45;5.30;;;;;;;8.65;52.24;99679.13;5032850;28;20172;-74
2024/02/17 03:34:34;;;;;;;8.00;5.18;;;;;;;8.62;52.35;99684.53;5033007;28;20501;-74
2024/02/17 03:36:59;;;;;;;9.38;5.38;;;;;;;8.57;52.40;99682.16;5032681;28;20105;-73
2024/02/17 03:39:25;;;;;;;10.02;5.20;;;;;;;8.56;52.35;99679.66;5033071;28;20067;-74
2024/02/17 03:41:51;;;;;;;9.20;5.45;;;;;;;8.59;52.27;99685.53;5032262;28;20041;-74
2024/02/17 03:44:18;;;;;;;10.00;5.88;;;;;;;8.59;52.65;99689.88;5040190;28;20174;-73
2024/02/17 03:46:44;;;;;;;10.13;5.80;;;;;;;8.55;52.58;99681.38;5021212;28;20049;-74
2024/02/17 03:49:10;;;;;;;9.50;4.95;;;;;;;8.51;52.41;99683.31;5015571;28;20060;-74
2024/02/17 03:51:36;;;;;;;9.75;5.35;;;;;;;8.54;52.22;99681.47;5032297;28;20033;-73
2024/02/17 03:54:02;;;;;;;9.32;5.50;;;;;;;8.52;52.69;99689.34;5031965;28;20036;-72
2024/02/17 03:56:28;;;;;;;8.48;5.45;;;;;;;8.52;52.25;99689.34;5015838;28;20029;-74
2024/02/17 03:58:53;;;;;;;9.15;5.53;;;;;;;8.48;52.54;99677.44;5015816;28;20049;-74
2024/02/17 04:01:19;;;;;;;7.78;5.32;;;;;;;8.48;52.38;99687.84;5015393;28;20053;-73
2024/02/17 04:03:45;;;;;;;8.38;5.57;;;;;;;8.44;52.79;99681.13;5032269;28;20350;-74
2024/02/17 04:06:10;;;;;;;8.77;5.35;;;;;;;8.43;52.16;99684.59;5015313;28;20091;-73
2024/02/17 04:08:36;;;;;;;8.77;5.07;;;;;;;8.41;52.20;99683.84;5015474;28;20045;-74
2024/02/17 04:11:01;;;;;;;8.25;5.10;;;;;;;8.44;52.48;99692.34;5031891;28;20037;-73
2024/02/17 04:13:27;;;;;;;8.43;5.68;;;;;;;8.38;52.26;99686.59;5016627;28;20099;-73
2024/02/17 04:15:55;;;;;;;8.25;5.43;;;;;;;8.39;52.56;99686.53;5031841;28;20025;-73
2024/02/17 04:18:21;;;;;;;8.65;5.45;;;;;;;8.40;52.47;99697.78;5031817;28;20040;-73
2024/02/17 04:20:47;;;;;;;9.70;6.13;;;;;;;8.41;52.81;99697.72;5031760;28;20038;-74
2024/02/17 04:23:13;;;;;;;9.55;5.28;;;;;;;8.39;52.33;99698.69;5031972;28;20030;-73
2024/02/17 04:25:40;;;;;;;8.80;5.28;;;;;;;8.40;52.57;99703.81;5031379;28;20037;-73
2024/02/17 04:28:08;;;;;;;10.35;5.38;;;;;;;8.39;52.70;99704.72;5031989;28;20078;-73
2024/02/17 04:30:34;;;;;;;8.65;5.53;;;;;;;8.39;52.30;99694.31;5031449;28;20029;-74
2024/02/17 04:32:59;;;;;;;9.50;6.05;;;;;;;8.38;52.66;99699.59;5031126;28;20047;-73
2024/02/17 04:35:25;;;;;;;8.70;5.57;;;;;;;8.36;52.78;99698.84;5031460;28;20041;-73
2024/02/17 04:37:51;;;;;;;9.48;5.82;;;;;;;8.29;52.74;99691.38;5015104;28;20041;-74
2024/02/17 04:40:17;;;;;;;8.38;5.22;;;;;;;8.28;52.71;99688.84;5031633;28;20040;-74
2024/02/17 04:42:43;;;;;;;9.10;5.68;;;;;;;8.33;52.32;99705.03;5015246;28;20037;-72
2024/02/17 04:45:09;;;;;;;12.65;6.05;;;;;;;8.28;52.70;99707.06;5031280;28;20493;-74
2024/02/17 04:47:35;;;;;;;9.77;5.55;;;;;;;8.32;52.31;99709.41;5031379;28;20041;-74
2024/02/17 04:50:00;;;;;;;10.43;6.13;;;;;;;8.29;52.98;99713.94;5031309;28;20037;-74
2024/02/17 04:52:26;;;;;;;10.60;6.13;;;;;;;8.29;53.01;99722.59;5031181;28;20029;-74
2024/02/17 04:54:52;;;;;;;8.00;5.35;;;;;;;8.29;52.37;99712.19;5031630;28;20067;-74
2024/02/17 04:57:18;;;;;;;12.45;6.53;;;;;;;8.22;52.64;99705.59;5014597;28;20091;-74
2024/02/17 04:59:43;;;;;;;11.40;6.10;;;;;;;8.24;52.71;99714.19;5031399;28;20034;-75
2024/02/17 05:02:09;;;;;;;9.15;5.82;;;;;;;8.21;52.83;99711.72;5014675;28;20064;-75
2024/02/17 05:04:34;;;;;;;9.38;6.15;;;;;;;8.24;52.49;99721.97;5014029;28;20048;-74
2024/02/17 05:07:00;;;;;;;8.88;5.88;;;;;;;8.24;52.98;99721.13;5014465;28;20037;-74
2024/02/17 05:09:28;;;;;;;11.80;6.20;;;;;;;8.23;52.80;99722.91;5013934;28;20064;-74
2024/02/17 05:11:55;;;;;;;11.18;6.15;;;;;;;8.25;52.36;99726.25;5031091;28;20111;-73
2024/02/17 05:14:25;;;;;;;9.20;5.57;;;;;;;8.21;52.89;99719.53;5030685;28;20409;-74
2024/02/17 05:16:50;;;;;;;10.68;6.43;;;;;;;8.23;52.48;99722.06;5013876;28;20025;-74
2024/02/17 05:19:16;;;;;;;11.23;6.53;;;;;;;8.29;52.75;99734.75;5030625;28;20092;-75
2024/02/17 05:21:45;;;;;;;9.48;5.90;;;;;;;8.30;52.71;99744.22;5032157;28;20040;-74
2024/02/17 05:24:10;;;;;;;;;;;;;;;8.36;52.55;99736.09;5030845;28;20045;-73
2024/02/17 05:26:36;;;;;;;9.90;5.65;;;;;;;8.41;52.52;99744.53;5047389;28;19909;-75
2024/02/17 05:29:03;;;;;;;8.75;5.38;;;;;;;8.41;52.08;99731.53;5013978;28;20065;-75
2024/02/17 05:31:28;;;;;;;9.30;5.80;;;;;;;8.56;51.86;99745.53;5014306;28;20146;-73
2024/02/17 05:33:54;;;;;;;10.55;6.22;;;;;;;8.65;51.56;99741.59;5030628;28;20025;-73
2024/02/17 05:36:20;;;;;;;10.02;5.80;;;;;;;8.86;51.23;99750.91;5030814;28;20117;-74
2024/02/17 05:38:45;;;;;;;10.52;6.85;;;;;;;9.00;51.04;99754.53;5015100;28;20411;-74
2024/02/17 05:41:12;;;;;;;9.73;5.95;;;;;;;9.29;50.48;99757.34;5030843;28;20041;-73
2024/02/17 05:43:37;;;;;;;9.40;5.97;;;;;;;9.48;50.03;99757.16;5014015;28;20033;-73
2024/02/17 05:46:03;;;;;;;8.18;5.93;;;;;;;9.73;49.97;99767.88;5032210;28;20041;-73
2024/02/17 05:48:28;;;;;;;10.20;6.30;;;;;;;9.94;49.28;99765.81;5030746;28;20021;-73
2024/02/17 05:50:54;;;;;;;10.75;6.35;;;;;;;10.18;48.87;99767.13;5030790;28;20539;-74
2024/02/17 05:53:20;;;;;;;10.00;5.97;;;;;;;10.40;48.67;99777.16;5030744;28;20075;-74
2024/02/17 05:55:46;;;;;;;9.45;6.15;;;;;;;10.63;48.39;99773.19;5014394;28;20072;-74
2024/02/17 05:58:11;;;;;;;10.73;6.25;;;;;;;10.80;47.82;99759.09;5031711;28;20034;-76
2024/02/17 06:00:37;;;;;;;9.75;5.93;;;;;;;11.15;47.19;99782.25;5030081;28;20030;-73
2024/02/17 06:03:02;;;;;;;9.63;6.15;;;;;;;11.46;47.09;99786.38;5030319;28;20033;-73
2024/02/17 06:05:29;;;;;;;8.02;5.65;;;;;;;11.71;46.50;99779.59;5030270;28;20089;-75
2024/02/17 06:07:54;;;;;;;9.38;5.95;;;;;;;12.00;46.20;99769.91;5030723;28;20025;-74
2024/02/17 06:10:20;;;;;;;12.07;6.90;;;;;;;12.41;45.80;99778.53;5030527;28;20377;-74
2024/02/17 06:12:48;;;;;;;13.35;9.13;;;;;;;12.81;45.05;99773.22;5030748;28;20437;-76
2024/02/17 06:15:14;;;;;;;22.05;12.68;;;;;;;13.23;44.26;99778.16;5014240;28;20048;-74
2024/02/17 06:17:43;;;;;;;27.50;16.95;;;;;;;13.57;43.63;99779.25;5029880;28;20037;-77
2024/02/17 06:23:02;;;;;;;28.65;19.23;;;;;;;14.50;42.36;99781.16;5030685;28;20104;-77
2024/02/17 06:25:27;;;;;;;30.80;18.80;;;;;;;14.89;42.14;99784.31;5030275;28;20064;-78
2024/02/17 06:27:53;;;;;;;30.63;19.23;;;;;;;15.35;41.49;99796.50;5030162;28;20447;-76
2024/02/17 06:30:18;;;;;;;28.45;18.50;;;;;;;15.76;41.17;99793.31;5017536;28;20049;-78
2024/02/17 06:32:44;;;;;;;28.83;18.60;;;;;;;16.14;40.57;99795.44;5033724;28;20029;-74
2024/02/17 06:35:09;;;;;;;32.97;19.33;;;;;;;16.49;39.76;99791.66;5033774;28;20413;-76
2024/02/17 06:37:35;;;;;;;30.23;20.08;;;;;;;16.87;39.30;99792.03;5033710;28;20038;-75
2024/02/17 06:40:01;;;;;;;32.47;20.63;;;;;;;17.28;38.74;99796.38;5033869;28;20041;-75
2024/02/17 06:42:27;;;;;;;36.65;23.05;;;;;;;17.65;38.16;99795.78;5033892;28;20029;-76
2024/02/17 06:44:52;;;;;;;38.38;25.25;;;;;;;18.06;37.54;99785.97;5033795;28;20053;-75
2024/02/17 06:47:19;;;;;;;36.83;24.58;;;;;;;18.60;36.74;99799.50;5033341;28;20413;-75
2024/02/17 06:49:45;;;;;;;36.22;23.95;;;;;;;19.12;36.07;99798.28;5035239;28;20034;-76
2024/02/17 06:52:10;;;;;;;36.00;24.15;;;;;;;19.67;35.43;99795.59;5033928;28;20111;-73
2024/02/17 06:54:36;;;;;;;33.95;22.48;;;;;;;20.21;34.49;99795.59;5033595;28;20444;-82
2024/02/17 06:57:02;;;;;;;32.90;21.38;;;;;;;20.83;33.69;99797.38;5033649;28;20455;-75
2024/02/17 06:59:27;;;;;;;31.02;20.98;;;;;;;21.44;32.48;99790.16;5033515;28;20043;-73
2024/02/17 07:01:53;;;;;;;29.40;19.45;;;;;;;22.22;31.31;99791.63;5033313;28;20026;-73
2024/02/17 07:04:18;;;;;;;27.10;18.38;;;;;;;23.00;30.35;99789.34;5016871;28;20034;-74
2024/02/17 07:06:44;;;;;;;16.98;6.13;;;;;;;23.69;34.55;99785.19;5034721;28;20476;-78
2024/02/17 07:09:20;;;;;;;20.27;5.60;;;;;;;24.35;34.67;99782.84;5002073;28;20036;-83
2024/02/17 07:11:46;;;;;;;18.83;5.95;;;;;;;25.18;33.69;99791.66;5018467;28;20037;-83
2024/02/17 07:14:14;;;;;;;10.90;5.75;;;;;;;26.03;32.12;99783.16;5016825;28;20428;-79
2024/02/17 07:16:40;;;;;;;12.27;6.00;;;;;;;26.87;30.49;99790.41;5033324;28;20025;-79
2024/02/17 07:19:05;;;;;;;15.38;6.22;;;;;;;27.50;29.04;99789.41;5034475;28;20401;-79
2024/02/17 07:21:32;;;;;;;17.13;6.40;;;;;;;27.92;28.45;99796.31;5016974;28;20033;-78
2024/02/17 07:23:58;;;;;;;17.27;6.55;;;;;;;28.40;27.33;99789.97;5000772;28;20091;-80
2024/02/17 07:26:23;;;;;;;16.50;6.18;;;;;;;28.86;26.99;99788.25;5038073;28;20409;-80
2024/02/17 07:28:49;;;;;;;14.98;5.90;;;;;;;29.48;25.72;99798.59;5020016;28;20052;-80
2024/02/17 07:31:16;;;;;;;13.13;7.47;;;;;;;29.82;25.11;99797.38;5036380;28;20033;-80
2024/02/17 07:33:46;;;;;;;13.13;7.88;;;;;;;30.22;22.91;99789.00;5053925;28;20029;-80
2024/02/17 07:36:11;;;;;;;17.17;9.07;;;;;;;30.27;22.26;99793.72;5020591;28;20033;-80
2024/02/17 07:38:37;;;;;;;19.25;9.25;;;;;;;30.13;21.83;99795.69;5056097;28;20498;-81
2024/02/17 07:41:03;;;;;;;12.90;9.05;;;;;;;29.66;21.22;99792.47;5019383;28;20443;-82
2024/02/17 07:43:34;;;;;;;14.23;9.85;;;;;;;29.15;21.46;99794.16;5036182;28;20082;-80
2024/02/17 07:46:00;;;;;;;15.25;9.80;;;;;;;28.62;21.69;99787.91;5038731;28;20055;-83
2024/02/17 07:48:25;;;;;;;12.95;9.18;;;;;;;28.15;21.80;99793.28;5052327;28;20037;-81
2024/02/17 07:50:51;;;;;;;13.93;9.30;;;;;;;27.91;22.15;99789.31;5035930;28;20121;-83
2024/02/17 07:53:17;;;;;;;13.65;9.35;;;;;;;27.87;21.80;99792.63;5038166;28;20040;-89
2024/02/17 07:55:42;;;;;;;14.45;8.65;;;;;;;27.53;24.17;99802.44;5054644;28;20082;-79
2024/02/17 07:58:08;;;;;;;15.30;7.45;;;;;;;27.46;25.70;99797.06;5055743;28;20488;-88
2024/02/17 08:00:34;;;;;;;17.48;7.47;;;;;;;27.40;25.53;99803.22;5056793;28;20025;-89
2024/02/17 08:02:59;;;;;;;12.68;8.38;;;;;;;27.36;24.65;99804.66;5057035;28;20029;-88
2024/02/17 08:05:25;;;;;;;11.77;8.00;;;;;;;27.18;24.53;99803.31;5052726;28;20480;-84
2024/02/17 08:07:50;;;;;;;11.93;8.40;;;;;;;27.07;24.38;99799.34;5046111;28;20036;-83
2024/02/17 08:10:16;;;;;;;13.90;9.35;;;;;;;27.06;23.94;99805.72;5063292;28;20029;-92
2024/02/17 08:12:42;;;;;;;13.05;8.82;;;;;;;27.02;23.74;99795.59;5074228;28;20080;-89
2024/02/17 08:15:08;;;;;;;12.98;9.50;;;;;;;26.93;22.54;99791.44;5028277;28;20113;-81
2024/02/17 08:17:34;;;;;;;13.27;9.18;;;;;;;26.73;22.28;99807.41;5063447;28;20139;-85
2024/02/17 08:19:59;;;;;;;13.52;9.95;;;;;;;26.39;22.31;99798.28;5064648;28;20357;-89
2024/02/17 08:22:25;;;;;;;15.23;11.80;;;;;;;26.07;21.95;99805.84;5057845;28;20060;-85
2024/02/17 08:24:50;;;;;;;12.85;9.63;;;;;;;26.12;21.94;99803.41;5018020;28;20029;-82
2024/02/17 08:27:16;;;;;;;16.13;10.88;;;;;;;26.05;22.27;99800.69;5034929;28;20079;-81
2024/02/17 08:29:41;;;;;;;15.48;10.88;;;;;;;25.72;22.42;99803.00;5049281;28;20069;-80
2024/02/17 08:32:07;;;;;;;13.07;9.85;;;;;;;25.74;23.25;99812.47;5049648;28;20385;-83
2024/02/17 08:34:33;;;;;;;14.23;8.73;;;;;;;25.56;24.94;99807.56;5017101;28;20033;-80
2024/02/17 08:36:59;;;;;;;14.43;7.82;;;;;;;24.96;27.01;99808.63;5051075;28;20037;-79
2024/02/17 08:39:24;;;;;;;11.15;7.88;;;;;;;24.56;27.76;99817.72;5033982;28;20412;-88
2024/02/17 08:41:52;;;;;;;14.82;9.52;;;;;;;24.60;25.86;99815.50;5050935;28;20041;-82
2024/02/17 08:44:17;;;;;;;16.70;10.57;;;;;;;24.06;26.34;99823.63;5051419;28;20484;-82
2024/02/17 08:46:43;;;;;;;19.15;11.73;;;;;;;23.95;26.39;99828.34;5032581;28;20049;-81
2024/02/17 08:49:08;;;;;;;15.13;10.80;;;;;;;24.00;26.77;99828.69;5016775;28;20048;-79
2024/02/17 08:51:36;;;;;;;17.30;11.15;;;;;;;23.73;29.44;99829.16;5041986;28;20025;-85
2024/02/17 08:54:01;;;;;;;18.85;9.98;;;;;;;23.64;29.79;99837.19;5052657;28;20472;-82
2024/02/17 08:56:27;;;;;;;16.63;9.35;;;;;;;23.80;29.10;99833.59;5036049;28;20032;-84
2024/02/17 08:58:53;;;;;;;17.15;8.30;;;;;;;24.19;30.72;99827.38;5069612;28;20087;-77
2024/02/17 09:01:18;;;;;;;20.98;9.27;;;;;;;24.09;30.89;99828.63;5035634;28;20416;-83
2024/02/17 09:03:44;;;;;;;19.00;10.43;;;;;;;24.50;29.58;99833.59;5069314;28;20045;-81
2024/02/17 09:06:10;;;;;;;17.63;9.10;;;;;;;24.58;28.85;99827.41;5062830;28;20515;-82
2024/02/17 09:08:35;;;;;;;27.33;9.68;;;;;;;24.79;27.80;99842.69;5039981;28;20093;-85
2024/02/17 09:11:01;;;;;;;15.45;9.88;;;;;;;25.01;27.01;99839.09;5026158;28;20033;-88
2024/02/17 09:13:26;;;;;;;18.27;8.95;;;;;;;25.36;26.90;99843.91;5050861;28;20120;-85
2024/02/17 09:15:52;;;;;;;12.90;9.45;;;;;;;25.65;26.15;99843.03;5032957;28;20025;-90
2024/02/17 09:18:17;;;;;;;19.42;10.57;;;;;;;25.97;25.58;99841.75;5048396;28;20037;-83
2024/02/17 09:20:42;;;;;;;14.15;10.30;;;;;;;26.51;24.70;99837.69;5031667;28;20404;-83
2024/02/17 09:23:08;;;;;;;16.00;10.43;;;;;;;26.98;23.32;99837.22;5049676;28;20049;-84
2024/02/17 09:25:33;;;;;;;15.27;9.73;;;;;;;27.19;23.06;99839.00;5031919;28;20048;-78
2024/02/17 09:27:59;;;;;;;13.88;9.75;;;;;;;27.27;22.98;99836.13;5049054;28;20098;-78
2024/02/17 09:30:24;;;;;;;12.60;9.75;;;;;;;27.59;22.10;99840.00;5047451;28;20087;-79
2024/02/17 09:32:50;;;;;;;13.90;9.57;;;;;;;27.80;21.81;99836.34;5031890;28;20056;-80
2024/02/17 09:35:17;;;;;;;12.98;8.90;;;;;;;27.99;23.00;99836.63;5032244;28;20789;-78
2024/02/17 09:37:44;;;;;;;15.43;8.80;;;;;;;27.69;22.72;99831.59;5048371;28;20492;-76
2024/02/17 09:40:12;;;;;;;18.27;9.45;;;;;;;27.30;22.63;99833.06;5049393;28;20048;-76
2024/02/17 09:42:38;;;;;;;12.98;9.40;;;;;;;27.65;22.26;99832.19;5029884;28;20025;-76
2024/02/17 09:45:05;;;;;;;14.02;9.73;;;;;;;27.25;22.53;99832.84;5011506;28;20067;-76
2024/02/17 09:47:34;;;;;;;14.98;10.95;;;;;;;27.21;22.22;99829.69;5039278;28;20013;-80
2024/02/17 09:49:59;;;;;;;15.55;10.30;;;;;;;26.78;22.48;99826.41;5015436;28;20080;-79
2024/02/17 09:52:28;;;;;;;15.00;10.10;;;;;;;26.37;23.60;99825.22;5048444;28;20060;-82
2024/02/17 09:54:57;;;;;;;16.90;10.45;;;;;;;26.12;23.62;99828.31;5052882;28;20040;-84
2024/02/17 09:57:22;;;;;;;18.25;10.48;;;;;;;25.92;23.34;99825.44;5052534;28;20040;-82
2024/02/17 09:59:48;;;;;;;15.73;8.73;;;;;;;25.95;27.99;99824.19;5069503;28;20143;-79
2024/02/17 10:02:13;;;;;;;16.58;10.00;;;;;;;26.17;25.57;99819.69;5063114;28;20025;-78
2024/02/17 10:04:55;;;;;;;14.23;9.35;;;;;;;26.33;25.80;99813.28;5053780;28;20040;-79
2024/02/17 10:07:20;;;;;;;16.25;9.70;;;;;;;26.31;25.30;99794.75;5036163;28;20124;-85
2024/02/17 10:09:47;;;;;;;15.32;10.00;;;;;;;26.04;24.68;99801.69;5054178;28;20041;-84
2024/02/17 10:12:13;;;;;;;13.82;10.10;;;;;;;25.41;25.31;99790.72;5037167;28;20112;-84
2024/02/17 10:14:39;;;;;;;16.17;11.05;;;;;;;25.19;24.64;99797.81;5053118;28;20032;-85
2024/02/17 10:17:08;;;;;;;16.15;10.65;;;;;;;25.17;24.53;99797.19;5035766;28;20052;-82
2024/02/17 10:19:34;;;;;;;16.92;10.10;;;;;;;24.80;25.79;99801.66;5037725;28;20028;-90
2024/02/17 10:21:59;;;;;;;15.38;10.35;;;;;;;24.42;26.01;99796.31;5020773;28;20114;-90
2024/02/17 10:24:25;;;;;;;15.38;10.57;;;;;;;23.96;26.38;99794.53;5020094;28;20133;-86
2024/02/17 10:26:53;;;;;;;15.95;10.65;;;;;;;23.55;26.51;99792.13;5039251;28;20543;-88
2024/02/17 10:29:19;;;;;;;16.02;10.82;;;;;;;23.27;27.00;99793.41;5055831;28;20094;-86
2024/02/17 10:31:47;;;;;;;14.45;7.80;;;;;;;22.91;35.32;99801.84;5037392;28;20087;-85
2024/02/17 10:34:13;;;;;;;19.27;8.07;;;;;;;22.59;34.94;99792.91;5020877;28;20113;-77
2024/02/17 10:36:38;;;;;;;13.30;8.48;;;;;;;22.23;34.60;99789.78;5055397;28;20032;-87
2024/02/17 10:39:04;;;;;;;23.55;7.90;;;;;;;21.86;37.66;99791.09;5021046;28;20124;-80
2024/02/17 10:41:30;;;;;;;20.15;7.95;;;;;;;21.72;38.50;99789.91;5037135;28;20037;-79
2024/02/17 10:43:55;;;;;;;14.52;8.07;;;;;;;21.72;38.45;99789.91;5037541;28;20045;-77
2024/02/17 10:46:24;;;;;;;18.45;8.98;;;;;;;21.86;38.11;99785.78;5036254;28;20401;-87
2024/02/17 10:49:10;;;;;;;20.17;9.18;;;;;;;21.86;38.00;99791.09;5037497;28;20036;-80
2024/02/17 10:51:49;;;;;;;18.63;9.70;;;;;;;21.91;37.81;99779.97;5044933;28;20044;-86
2024/02/17 10:54:16;;;;;;;18.73;8.88;;;;;;;21.86;37.89;99785.78;5047380;28;20468;-83
2024/02/17 10:56:41;;;;;;;17.70;9.15;;;;;;;22.15;37.21;99774.66;5035257;28;20025;-84
2024/02/17 10:59:07;;;;;;;16.45;9.57;;;;;;;22.30;36.69;99771.38;5041398;28;20484;-78
2024/02/17 11:01:33;;;;;;;16.40;9.32;;;;;;;22.36;36.21;99776.84;5052909;28;20029;-78
2024/02/17 11:03:59;;;;;;;21.58;9.88;;;;;;;22.45;35.44;99774.16;5036883;28;20036;-87
2024/02/17 11:06:25;;;;;;;19.92;9.82;;;;;;;22.50;34.82;99790.44;5020684;28;20021;-75
2024/02/17 11:08:51;;;;;;;16.20;9.98;;;;;;;22.60;34.29;99783.13;5036305;28;20040;-80
2024/02/17 11:11:35;;;;;;;15.43;10.27;;;;;;;22.25;34.94;99773.66;5036483;28;20094;-81
2024/02/17 11:14:37;;;;;;;15.27;9.65;;;;;;;21.90;35.94;99778.31;5051982;28;20041;-80
2024/02/17 11:17:03;;;;;;;13.52;10.10;;;;;;;21.63;36.55;99782.91;5033048;28;20481;-82
2024/02/17 11:19:28;;;;;;;15.57;8.95;;;;;;;21.63;36.48;99774.94;5033038;28;20037;-87
2024/02/17 11:21:55;;;;;;;18.42;9.38;;;;;;;21.66;36.17;99775.47;5018916;28;20071;-91
2024/02/17 11:24:22;;;;;;;15.43;9.50;;;;;;;21.53;36.81;99772.44;5006412;28;20045;-93
2024/02/17 11:26:47;;;;;;;14.90;9.20;;;;;;;21.27;37.50;99759.25;5020904;28;20429;-93
2024/02/17 11:29:30;;;;;;;14.40;8.93;;;;;;;21.15;37.88;99770.13;5008944;28;20053;-92